createdAt,value
2022-11-02T00:01:20.306Z,1.33
2022-11-02T00:03:48.272Z,1.33
2022-11-02T00:06:15.493Z,2.38
2022-11-02T00:08:42.562Z,2.00
2022-11-02T00:11:09.566Z,1.80
2022-11-02T00:13:36.706Z,1.52
2022-11-02T00:16:08.090Z,1.55
2022-11-02T00:18:36.917Z,1.40
2022-11-02T00:21:04.829Z,1.88
2022-11-02T00:23:32.808Z,1.65
2022-11-02T00:26:02.557Z,2.15
2022-11-02T00:28:30.789Z,2.03
2022-11-02T00:30:58.505Z,2.28
2022-11-02T00:33:26.502Z,1.90
2022-11-02T00:35:55.087Z,2.15
2022-11-02T00:38:22.178Z,2.67
2022-11-02T00:40:49.166Z,2.10
2022-11-02T00:43:16.138Z,2.28
2022-11-02T00:45:43.123Z,2.33
2022-11-02T00:48:10.574Z,2.25
2022-11-02T00:50:38.076Z,1.27
2022-11-02T00:53:05.180Z,2.47
2022-11-02T00:55:32.807Z,2.20
2022-11-02T00:57:59.864Z,2.13
2022-11-02T01:00:26.975Z,1.55
2022-11-02T01:02:53.970Z,1.70
2022-11-02T01:05:20.966Z,1.88
2022-11-02T01:07:48.020Z,2.33
2022-11-02T01:10:14.994Z,1.63
2022-11-02T01:12:42.079Z,1.75
2022-11-02T01:15:10.425Z,2.20
2022-11-02T01:17:37.964Z,1.55
2022-11-02T01:20:05.996Z,1.50
2022-11-02T01:22:33.160Z,1.70
2022-11-02T01:25:00.146Z,1.20
2022-11-02T01:27:27.143Z,1.23
2022-11-02T01:29:54.228Z,0.80
2022-11-02T01:32:21.217Z,0.80
2022-11-02T01:34:48.213Z,0.63
2022-11-02T01:37:15.337Z,0.55
2022-11-02T01:39:42.429Z,0.70
2022-11-02T01:42:24.099Z,0.68
2022-11-02T01:44:52.447Z,0.60
2022-11-02T01:47:31.412Z,0.40
2022-11-02T01:50:07.269Z,0.60
2022-11-02T01:52:36.309Z,0.77
2022-11-02T01:55:12.141Z,0.55
2022-11-02T01:57:41.619Z,0.88
2022-11-02T02:00:15.136Z,0.80
2022-11-02T02:03:02.706Z,1.10
2022-11-02T02:05:33.541Z,0.50
2022-11-02T02:08:03.045Z,0.55
2022-11-02T02:10:30.457Z,0.73
2022-11-02T02:12:57.599Z,0.47
2022-11-02T02:15:34.426Z,1.00
2022-11-02T02:18:13.568Z,0.70
2022-11-02T02:21:05.185Z,1.20
2022-11-02T02:24:13.563Z,0.60
2022-11-02T02:26:59.092Z,1.10
2022-11-02T02:29:45.845Z,0.80
2022-11-02T02:32:19.513Z,1.40
2022-11-02T02:35:11.071Z,0.95
2022-11-02T02:37:46.415Z,0.60
2022-11-02T02:40:37.740Z,1.05
2022-11-02T02:43:12.364Z,1.10
2022-11-02T02:45:44.727Z,0.77
2022-11-02T02:48:19.233Z,1.40
2022-11-02T02:50:53.893Z,1.02
2022-11-02T02:53:28.339Z,1.23
2022-11-02T02:55:58.239Z,1.38
2022-11-02T02:58:31.198Z,1.40
2022-11-02T03:01:00.678Z,1.43
2022-11-02T03:03:29.892Z,1.00
2022-11-02T03:06:15.408Z,1.10
2022-11-02T03:08:48.781Z,1.52
2022-11-02T03:11:18.502Z,1.33
2022-11-02T03:14:13.750Z,1.92
2022-11-02T03:17:11.588Z,2.45
2022-11-02T03:20:09.261Z,1.70
2022-11-02T03:23:01.061Z,1.48
2022-11-02T03:25:36.774Z,1.52
2022-11-02T03:28:16.331Z,2.20
2022-11-02T03:30:50.898Z,1.23
2022-11-02T03:33:31.633Z,1.75
2022-11-02T03:36:21.298Z,2.00
2022-11-02T03:39:01.054Z,1.77
2022-11-02T03:41:29.116Z,2.17
2022-11-02T03:44:03.685Z,1.65
2022-11-02T03:46:34.372Z,1.65
2022-11-02T03:49:07.602Z,1.60
2022-11-02T03:51:39.648Z,1.50
2022-11-02T03:54:17.999Z,1.58
2022-11-02T03:56:49.745Z,2.42
2022-11-02T03:59:17.244Z,2.80
2022-11-02T04:01:46.953Z,1.75
2022-11-02T04:04:14.529Z,1.80
2022-11-02T04:06:42.720Z,2.05
2022-11-02T04:09:09.955Z,2.00
2022-11-02T04:11:55.802Z,1.85
2022-11-02T04:14:38.028Z,1.80
2022-11-02T04:17:25.117Z,1.55
2022-11-02T04:19:52.713Z,2.08
2022-11-02T04:22:38.932Z,2.20
2022-11-02T04:25:18.430Z,1.52
2022-11-02T04:27:55.802Z,2.00
2022-11-02T04:30:23.492Z,2.20
2022-11-02T04:33:09.774Z,2.83
2022-11-02T04:35:37.789Z,3.08
2022-11-02T04:38:23.713Z,2.25
2022-11-02T04:41:13.332Z,2.53
2022-11-02T04:43:40.332Z,2.40
2022-11-02T04:46:07.712Z,2.20
2022-11-02T04:48:34.934Z,1.88
2022-11-02T04:51:02.430Z,2.33
2022-11-02T04:53:29.467Z,1.98
2022-11-02T04:55:56.512Z,2.35
2022-11-02T04:58:23.523Z,2.72
2022-11-02T05:00:50.520Z,2.70
2022-11-02T05:03:17.531Z,3.20
2022-11-02T05:05:47.062Z,2.40
2022-11-02T05:08:14.150Z,3.33
2022-11-02T05:10:41.166Z,2.35
2022-11-02T05:13:10.498Z,2.63
2022-11-02T05:15:40.505Z,2.05
2022-11-02T05:18:08.295Z,2.88
2022-11-02T05:20:35.629Z,3.13
2022-11-02T05:23:02.996Z,3.25
2022-11-02T05:25:30.457Z,2.25
2022-11-02T05:27:57.935Z,2.28
2022-11-02T05:30:25.601Z,2.53
2022-11-02T05:32:57.501Z,2.95
2022-11-02T05:35:24.573Z,1.83
2022-11-02T05:37:54.551Z,2.40
2022-11-02T05:40:21.604Z,2.20
2022-11-02T05:42:48.765Z,2.13
2022-11-02T05:45:19.309Z,2.10
2022-11-02T05:47:49.197Z,2.63
2022-11-02T05:50:16.237Z,2.53
2022-11-02T05:52:43.261Z,2.10
2022-11-02T05:55:10.316Z,2.75
2022-11-02T05:57:37.561Z,2.03
2022-11-02T06:00:06.367Z,2.28
2022-11-02T06:02:34.449Z,3.58
2022-11-02T06:05:01.856Z,2.30
2022-11-02T06:07:29.078Z,2.33
2022-11-02T06:09:56.118Z,2.42
2022-11-02T06:12:23.230Z,2.90
2022-11-02T06:14:50.325Z,1.70
2022-11-02T06:17:17.305Z,2.35
2022-11-02T06:19:44.304Z,1.85
2022-11-02T06:22:11.360Z,2.92
2022-11-02T06:24:38.337Z,3.03
2022-11-02T06:27:05.433Z,2.47
2022-11-02T06:29:32.468Z,2.97
2022-11-02T06:31:59.489Z,2.28
2022-11-02T06:34:26.508Z,2.08
2022-11-02T06:36:53.832Z,1.83
2022-11-02T06:39:21.160Z,2.05
2022-11-02T06:41:48.166Z,1.65
2022-11-02T06:44:15.182Z,2.15
2022-11-02T06:46:42.197Z,1.90
2022-11-02T06:49:09.181Z,2.08
2022-11-02T06:51:36.169Z,1.65
2022-11-02T06:54:08.332Z,2.53
2022-11-02T06:56:35.764Z,3.42
2022-11-02T06:59:02.789Z,2.55
2022-11-02T07:01:29.951Z,2.22
2022-11-02T07:03:57.170Z,2.85
2022-11-02T07:06:24.258Z,2.78
2022-11-02T07:08:51.479Z,1.98
2022-11-02T07:11:18.513Z,3.33
2022-11-02T07:13:45.538Z,2.13
2022-11-02T07:16:12.626Z,1.40
2022-11-02T07:18:40.847Z,1.65
2022-11-02T07:21:10.523Z,1.17
2022-11-02T07:23:38.079Z,2.35
2022-11-02T07:26:05.437Z,1.90
2022-11-02T07:28:32.445Z,1.45
2022-11-02T07:30:59.486Z,1.75
2022-11-02T07:33:26.510Z,1.70
2022-11-02T07:35:53.513Z,2.03
2022-11-02T07:38:20.834Z,1.25
2022-11-02T07:40:50.777Z,1.13
2022-11-02T07:43:17.863Z,1.60
2022-11-02T07:45:44.908Z,1.80
2022-11-02T07:48:11.948Z,1.83
2022-11-02T07:50:39.002Z,1.60
2022-11-02T07:53:06.296Z,2.33
2022-11-02T07:55:34.167Z,1.50
2022-11-02T07:58:04.151Z,1.65
2022-11-02T08:00:34.618Z,2.13
2022-11-02T08:03:03.101Z,1.35
2022-11-02T08:05:33.304Z,1.30
2022-11-02T08:08:02.646Z,1.02
2022-11-02T08:10:35.461Z,1.58
2022-11-02T08:13:06.777Z,1.33
2022-11-02T08:15:33.820Z,1.15
2022-11-02T08:18:03.256Z,1.25
2022-11-02T08:20:31.220Z,1.73
2022-11-02T08:22:58.269Z,1.52
2022-11-02T08:25:25.967Z,1.27
2022-11-02T08:27:57.668Z,1.40
2022-11-02T08:30:28.724Z,1.25
2022-11-02T08:33:02.098Z,1.73
2022-11-02T08:35:29.583Z,1.40
2022-11-02T08:37:57.283Z,1.60
2022-11-02T08:40:24.451Z,2.05
2022-11-02T08:43:02.181Z,1.38
2022-11-02T08:45:42.818Z,1.73
2022-11-02T08:48:17.445Z,1.20
2022-11-02T08:50:44.479Z,1.77
2022-11-02T08:53:11.546Z,1.20
2022-11-02T08:55:38.662Z,1.20
2022-11-02T08:58:06.252Z,1.63
2022-11-02T09:00:35.034Z,1.85
2022-11-02T09:03:10.749Z,1.27
2022-11-02T09:05:47.347Z,3.08
2022-11-02T09:08:17.373Z,1.83
2022-11-02T09:10:46.556Z,1.85
2022-11-02T09:13:15.264Z,1.98
2022-11-02T09:15:42.354Z,1.85
2022-11-02T09:18:10.348Z,1.73
2022-11-02T09:20:37.586Z,1.95
2022-11-02T09:23:04.844Z,1.98
2022-11-02T09:25:32.295Z,2.00
2022-11-02T09:27:59.719Z,1.85
2022-11-02T09:30:28.610Z,1.73
2022-11-02T09:33:00.579Z,1.73
2022-11-02T09:35:33.557Z,2.10
2022-11-02T09:38:00.703Z,1.60
2022-11-02T09:40:36.780Z,1.48
2022-11-02T09:43:21.216Z,2.83
2022-11-02T09:45:55.743Z,2.63
2022-11-02T09:48:28.989Z,2.25
2022-11-02T09:51:11.007Z,1.92
2022-11-02T09:54:03.926Z,2.17
2022-11-02T09:56:32.591Z,1.75
2022-11-02T09:59:02.904Z,1.70
2022-11-02T10:02:18.082Z,1.83
2022-11-02T10:04:53.843Z,1.58
2022-11-02T10:07:20.906Z,1.63
2022-11-02T10:10:05.380Z,2.05
2022-11-02T10:13:03.241Z,1.50
2022-11-02T10:15:40.253Z,1.70
2022-11-02T10:18:17.376Z,2.00
2022-11-02T10:20:46.035Z,1.40
2022-11-02T10:23:24.598Z,1.75
2022-11-02T10:25:51.832Z,1.90
2022-11-02T10:28:25.888Z,1.90
2022-11-02T10:30:54.360Z,1.45
2022-11-02T10:33:29.247Z,1.45
2022-11-02T10:36:18.622Z,1.60
2022-11-02T10:39:03.523Z,1.33
2022-11-02T10:41:54.634Z,2.10
2022-11-02T10:44:36.686Z,3.20
2022-11-02T10:47:18.088Z,10.50
2022-11-02T10:50:11.037Z,9.80
2022-11-02T10:52:43.495Z,3.95
2022-11-02T10:55:24.487Z,3.65
2022-11-02T10:57:53.828Z,3.63
2022-11-02T11:00:30.517Z,2.38
2022-11-02T11:03:11.623Z,2.78
2022-11-02T11:06:04.674Z,2.22
2022-11-02T11:08:43.709Z,2.03
2022-11-02T11:11:15.372Z,1.52
2022-11-02T11:16:38.411Z,1.92
2022-11-02T11:21:54.242Z,1.50
2022-11-02T11:24:22.600Z,2.97
2022-11-02T11:27:21.398Z,1.98
2022-11-02T11:29:55.019Z,1.90
2022-11-02T11:32:30.369Z,1.75
2022-11-02T11:35:02.465Z,2.28
2022-11-02T11:37:30.001Z,1.70
2022-11-02T11:40:14.787Z,2.10
2022-11-02T11:42:43.415Z,2.33
2022-11-02T11:45:27.867Z,2.60
2022-11-02T11:47:59.128Z,1.73
2022-11-02T11:50:29.242Z,2.42
2022-11-02T11:53:15.464Z,2.00
2022-11-02T11:55:50.999Z,1.95
2022-11-02T11:58:22.539Z,2.47
2022-11-02T12:01:10.700Z,2.85
2022-11-02T12:03:57.716Z,1.38
2022-11-02T12:06:39.167Z,1.65
2022-11-02T12:09:27.563Z,2.42
2022-11-02T12:12:17.178Z,2.38
2022-11-02T12:15:07.337Z,2.78
2022-11-02T12:17:55.330Z,3.15
2022-11-02T12:20:59.194Z,1.35
2022-11-02T12:23:50.226Z,2.22
2022-11-02T12:26:39.012Z,1.40
2022-11-02T12:29:21.359Z,2.25
2022-11-02T12:32:18.222Z,1.60
2022-11-02T12:35:23.142Z,2.33
2022-11-02T12:38:00.332Z,1.95
2022-11-02T12:40:43.739Z,1.50
2022-11-02T12:43:35.319Z,1.60
2022-11-02T12:46:22.018Z,1.75
2022-11-02T12:49:24.096Z,1.70
2022-11-02T12:52:14.042Z,1.85
2022-11-02T12:54:49.275Z,2.25
2022-11-02T12:57:20.402Z,1.85
2022-11-02T12:59:54.810Z,1.88
2022-11-02T13:02:28.900Z,1.95
2022-11-02T13:05:06.661Z,2.30
2022-11-02T13:07:39.639Z,2.25
2022-11-02T13:10:20.661Z,2.83
2022-11-02T13:12:55.523Z,1.98
2022-11-02T13:15:25.956Z,2.28
2022-11-02T13:17:57.465Z,5.13
2022-11-02T13:20:28.604Z,3.10
2022-11-02T13:23:07.829Z,1.50
2022-11-02T13:25:40.608Z,1.45
2022-11-02T13:28:19.385Z,1.05
2022-11-02T13:30:47.751Z,1.60
2022-11-02T13:33:21.147Z,1.27
2022-11-02T13:35:50.216Z,3.03
2022-11-02T13:38:39.030Z,3.20
2022-11-02T13:41:52.804Z,2.80
2022-11-02T13:44:35.059Z,2.08
2022-11-02T13:47:49.397Z,2.95
2022-11-02T13:50:20.216Z,3.38
2022-11-02T13:52:56.374Z,2.17
2022-11-02T13:55:42.872Z,1.67
2022-11-02T13:58:23.956Z,1.30
2022-11-02T14:00:53.354Z,0.95
2022-11-02T14:03:28.256Z,1.27
2022-11-02T14:06:00.627Z,3.55
2022-11-02T14:08:36.195Z,2.38
2022-11-02T14:11:09.296Z,2.67
2022-11-02T14:13:51.367Z,3.03
2022-11-02T14:16:45.324Z,3.40
2022-11-02T14:19:20.232Z,1.98
2022-11-02T14:21:59.592Z,1.45
2022-11-02T14:24:32.651Z,1.63
2022-11-02T14:27:22.113Z,2.85
2022-11-02T14:29:53.225Z,1.52
2022-11-02T14:32:20.200Z,2.15
2022-11-02T14:35:11.209Z,2.25
2022-11-02T14:37:55.375Z,2.08
2022-11-02T14:40:47.372Z,1.88
2022-11-02T14:43:48.500Z,1.52
2022-11-02T14:46:44.392Z,1.73
2022-11-02T14:49:28.602Z,2.08
2022-11-02T14:52:21.777Z,2.13
2022-11-02T14:54:53.971Z,2.60
2022-11-02T14:57:29.346Z,2.50
2022-11-02T14:59:59.661Z,2.17
2022-11-02T15:02:38.626Z,2.00
2022-11-02T15:05:22.916Z,2.95
2022-11-02T15:07:59.664Z,2.67
2022-11-02T15:10:32.949Z,1.50
2022-11-02T15:13:18.524Z,2.05
2022-11-02T15:15:51.743Z,2.08
2022-11-02T15:18:27.454Z,2.25
2022-11-02T15:21:18.994Z,2.10
2022-11-02T15:24:04.612Z,2.05
2022-11-02T15:26:52.970Z,2.38
2022-11-02T15:29:39.434Z,2.10
2022-11-02T15:32:18.307Z,2.17
2022-11-02T15:34:51.732Z,2.55
2022-11-02T15:37:37.377Z,3.05
2022-11-02T15:40:27.569Z,2.97
2022-11-02T15:43:19.542Z,3.83
2022-11-02T15:46:04.852Z,2.65
2022-11-02T15:48:43.451Z,2.55
2022-11-02T15:51:52.762Z,2.58
2022-11-02T15:54:46.190Z,2.00
2022-11-02T15:57:31.456Z,2.03
2022-11-02T16:00:06.857Z,2.03
2022-11-02T16:02:38.434Z,2.35
2022-11-02T16:05:06.439Z,2.53
2022-11-02T16:07:50.308Z,2.03
2022-11-02T16:10:26.141Z,2.10
2022-11-02T16:13:01.401Z,2.42
2022-11-02T16:15:29.383Z,2.38
2022-11-02T16:17:58.282Z,2.63
2022-11-02T16:20:29.220Z,2.22
2022-11-02T16:22:59.756Z,2.20
2022-11-02T16:25:54.315Z,2.20
2022-11-02T16:28:25.455Z,2.33
2022-11-02T16:31:17.875Z,2.38
2022-11-02T16:33:50.308Z,2.83
2022-11-02T16:36:31.832Z,2.92
2022-11-02T16:39:08.971Z,2.40
2022-11-02T16:41:36.584Z,2.22
2022-11-02T16:44:25.021Z,1.75
2022-11-02T16:47:07.176Z,1.95
2022-11-02T16:49:55.145Z,2.08
2022-11-02T16:52:33.704Z,2.00
2022-11-02T16:55:01.553Z,2.92
2022-11-02T16:57:34.104Z,2.42
2022-11-02T17:00:11.363Z,2.58
2022-11-02T17:02:41.276Z,2.47
2022-11-02T17:05:26.956Z,2.35
2022-11-02T17:07:59.699Z,2.50
2022-11-02T17:10:28.902Z,2.58
2022-11-02T17:12:56.931Z,2.00
2022-11-02T17:15:28.959Z,1.75
2022-11-02T17:18:08.587Z,3.08
2022-11-02T17:20:37.723Z,2.30
2022-11-02T17:23:10.425Z,2.00
2022-11-02T17:25:39.887Z,2.35
2022-11-02T17:28:38.952Z,2.00
2022-11-02T17:31:20.330Z,1.85
2022-11-02T17:33:47.879Z,1.80
2022-11-02T17:36:15.805Z,1.92
2022-11-02T17:38:43.002Z,1.65
2022-11-02T17:41:32.108Z,1.55
2022-11-02T17:43:59.209Z,2.10
2022-11-02T17:46:26.258Z,2.10
2022-11-02T17:48:53.244Z,2.40
2022-11-02T17:51:22.096Z,2.00
2022-11-02T17:53:49.848Z,2.83
2022-11-02T17:56:17.228Z,2.42
2022-11-02T17:58:44.309Z,1.88
2022-11-02T18:01:12.944Z,2.35
2022-11-02T18:03:40.379Z,2.53
2022-11-02T18:06:07.538Z,3.05
2022-11-02T18:08:54.577Z,2.53
2022-11-02T18:11:26.035Z,2.45
2022-11-02T18:13:53.710Z,1.85
2022-11-02T18:16:20.944Z,1.75
2022-11-02T18:18:47.966Z,2.05
2022-11-02T18:21:14.951Z,1.77
2022-11-02T18:23:41.982Z,1.65
2022-11-02T18:26:11.808Z,1.98
2022-11-02T18:28:39.117Z,1.92
2022-11-02T18:31:09.227Z,2.05
2022-11-02T18:33:36.292Z,2.17
2022-11-02T18:36:09.084Z,1.80
2022-11-02T18:38:37.262Z,2.03
2022-11-02T18:41:26.905Z,1.88
2022-11-02T18:44:00.538Z,2.25
2022-11-02T18:46:32.059Z,1.60
2022-11-02T18:48:59.182Z,1.83
2022-11-02T18:51:27.010Z,1.90
2022-11-02T18:53:58.142Z,2.15
2022-11-02T18:56:25.543Z,2.00
2022-11-02T18:58:54.387Z,1.80
2022-11-02T19:01:23.608Z,2.75
2022-11-02T19:03:55.290Z,2.00
2022-11-02T19:06:41.643Z,1.73
2022-11-02T19:09:21.474Z,2.30
2022-11-02T19:12:01.264Z,2.47
2022-11-02T19:14:36.844Z,2.15
2022-11-02T19:17:04.419Z,1.85
2022-11-02T19:19:32.329Z,1.90
2022-11-02T19:21:59.625Z,1.88
2022-11-02T19:24:27.006Z,2.28
2022-11-02T19:26:54.787Z,2.15
2022-11-02T19:29:21.928Z,2.15
2022-11-02T19:31:48.976Z,1.52
2022-11-02T19:34:16.225Z,2.35
2022-11-02T19:36:43.247Z,2.17
2022-11-02T19:39:10.664Z,1.92
2022-11-02T19:41:38.591Z,2.03
2022-11-02T19:44:06.114Z,2.25
2022-11-02T19:46:33.251Z,1.85
2022-11-02T19:49:00.328Z,1.95
2022-11-02T19:51:29.947Z,1.85
2022-11-02T19:53:59.837Z,1.92
2022-11-02T19:56:28.837Z,1.95
2022-11-02T19:58:56.615Z,2.10
2022-11-02T20:01:38.001Z,2.38
2022-11-02T20:04:05.773Z,1.80
2022-11-02T20:06:38.741Z,2.45
2022-11-02T20:09:07.870Z,2.08
2022-11-02T20:11:36.141Z,2.47
2022-11-02T20:14:05.018Z,1.98
2022-11-02T20:16:36.325Z,1.67
2022-11-02T20:19:04.992Z,2.03
2022-11-02T20:21:39.848Z,1.80
2022-11-02T20:24:13.657Z,2.13
2022-11-02T20:26:43.777Z,1.65
2022-11-02T20:29:13.923Z,2.08
2022-11-02T20:31:44.450Z,1.63
2022-11-02T20:34:12.854Z,2.25
2022-11-02T20:36:40.108Z,1.95
2022-11-02T20:39:07.864Z,2.00
2022-11-02T20:41:34.881Z,2.22
2022-11-02T20:44:04.871Z,2.60
2022-11-02T20:46:41.850Z,2.53
2022-11-02T20:51:58.031Z,2.38
2022-11-02T20:54:26.124Z,2.10
2022-11-02T20:56:53.187Z,2.63
2022-11-02T20:59:20.283Z,2.35
2022-11-02T21:01:47.570Z,2.42
2022-11-02T21:04:20.424Z,2.03
2022-11-02T21:06:51.988Z,2.55
2022-11-02T21:09:19.272Z,2.25
2022-11-02T21:12:05.157Z,2.00
2022-11-02T21:14:35.188Z,1.98
2022-11-02T21:17:02.942Z,2.42
2022-11-02T21:19:30.092Z,2.47
2022-11-02T21:21:59.896Z,3.00
2022-11-02T21:24:28.672Z,2.47
2022-11-02T21:26:55.694Z,2.53
2022-11-02T21:29:22.793Z,2.60
2022-11-02T21:31:50.174Z,3.25
2022-11-02T21:34:17.348Z,2.42
2022-11-02T21:36:44.432Z,2.47
2022-11-02T21:39:11.970Z,3.13
2022-11-02T21:41:39.855Z,3.13
2022-11-02T21:44:07.693Z,2.08
2022-11-02T21:46:35.604Z,2.65
2022-11-02T21:49:03.744Z,2.35
2022-11-02T21:51:30.819Z,2.75
2022-11-02T21:53:57.892Z,2.83
2022-11-02T21:56:27.018Z,1.92
2022-11-02T21:58:55.468Z,2.45
2022-11-02T22:01:42.478Z,2.58
2022-11-02T22:04:14.829Z,3.30
2022-11-02T22:06:42.595Z,2.70
2022-11-02T22:09:11.899Z,2.70
2022-11-02T22:11:39.954Z,2.78
2022-11-02T22:14:07.508Z,2.63
2022-11-02T22:16:37.492Z,2.50
2022-11-02T22:19:15.267Z,2.45
2022-11-02T22:21:44.706Z,2.58
2022-11-02T22:24:12.602Z,2.50
2022-11-02T22:26:40.986Z,2.95
2022-11-02T22:29:08.654Z,2.42
2022-11-02T22:31:38.801Z,2.90
2022-11-02T22:34:08.159Z,2.38
2022-11-02T22:36:35.890Z,3.22
2022-11-02T22:39:05.299Z,2.95
2022-11-02T22:41:38.282Z,2.22
2022-11-02T22:44:16.320Z,2.90
2022-11-02T22:46:46.000Z,2.72
2022-11-02T22:49:16.296Z,2.72
2022-11-02T22:51:45.683Z,2.47
2022-11-02T22:54:15.640Z,2.47
2022-11-02T22:56:44.181Z,2.25
2022-11-02T22:59:12.611Z,2.88
2022-11-02T23:01:41.230Z,3.10
2022-11-02T23:04:13.608Z,2.70
2022-11-02T23:06:43.938Z,2.45
2022-11-02T23:09:14.283Z,2.60
2022-11-02T23:11:41.410Z,2.60
2022-11-02T23:14:13.953Z,2.30
2022-11-02T23:16:48.553Z,2.72
2022-11-02T23:19:27.766Z,3.20
2022-11-02T23:22:17.515Z,2.88
2022-11-02T23:25:09.070Z,2.97
2022-11-02T23:28:00.010Z,2.85
2022-11-02T23:30:54.540Z,2.47
2022-11-02T23:33:23.330Z,2.75
2022-11-02T23:36:10.813Z,3.10
2022-11-02T23:38:57.708Z,2.83
2022-11-02T23:41:25.577Z,3.38
2022-11-02T23:44:12.450Z,2.28
2022-11-02T23:46:44.009Z,1.83
2022-11-02T23:49:13.211Z,2.95
2022-11-02T23:51:59.138Z,2.10
2022-11-02T23:54:45.417Z,2.90
2022-11-02T23:57:12.801Z,2.65
2022-11-02T23:59:40.353Z,2.45
